Time;durP1;ratioP1;P1;durP2;ratioP2;P2;SDS_P1;SDS_P2;PMS_P1;PMS_P2;Temp;Humidity;BMP_temperature;BMP_pressure;BME280_temperature;BME280_humidity;BME280_pressure;Samples;Min_cycle;Max_cycle;Signal;HPM_P1;HPM_P2
2024/03/22 00:02:04;;;;;;;5.88;3.75;;;;;;;9.94;76.34;99879.44;5093216;28;20513;-66
2024/03/22 00:04:32;;;;;;;4.68;2.65;;;;;;;9.90;76.15;99870.09;5092835;28;20556;-65
2024/03/22 00:07:00;;;;;;;10.00;4.40;;;;;;;9.91;76.24;99870.94;5092651;28;20056;-66
2024/03/22 00:09:27;;;;;;;2.88;2.55;;;;;;;9.91;76.06;99870.94;5092736;28;20033;-66
2024/03/22 00:11:54;;;;;;;7.47;3.75;;;;;;;9.91;76.53;99876.06;5076208;28;20036;-66
2024/03/22 00:14:21;;;;;;;6.43;4.78;;;;;;;9.89;76.67;99880.25;5092958;28;20037;-66
2024/03/22 00:16:49;;;;;;;3.60;2.95;;;;;;;9.90;76.77;99889.63;5093509;28;20044;-66
2024/03/22 00:19:16;;;;;;;4.63;3.95;;;;;;;9.90;77.06;99879.44;5093165;28;20036;-66
2024/03/22 00:21:45;;;;;;;5.15;4.47;;;;;;;9.89;76.92;99887.91;5093145;28;20047;-66
2024/03/22 00:24:12;;;;;;;2.85;2.55;;;;;;;9.87;77.01;99887.06;5092625;28;20028;-66
2024/03/22 00:26:40;;;;;;;2.55;2.35;;;;;;;9.84;76.78;99881.94;5092829;28;20040;-66
2024/03/22 00:29:15;;;;;;;3.78;3.15;;;;;;;9.82;76.63;99870.88;5092905;28;20501;-67
2024/03/22 00:31:43;;;;;;;3.75;3.20;;;;;;;9.88;76.28;99882.00;5092441;28;20051;-66
2024/03/22 00:34:10;;;;;;;2.75;2.33;;;;;;;9.86;76.42;99887.91;5092888;28;20040;-66
2024/03/22 00:36:37;;;;;;;4.00;2.92;;;;;;;9.81;76.09;99880.22;5092532;28;20547;-66
2024/03/22 00:39:05;;;;;;;4.13;3.05;;;;;;;9.83;76.93;99877.69;5075617;28;20378;-66
2024/03/22 00:41:33;;;;;;;4.88;4.22;;;;;;;9.81;76.87;99869.19;5092906;28;20041;-66
2024/03/22 00:44:00;;;;;;;6.68;2.97;;;;;;;9.77;76.59;99859.81;5092635;28;20028;-66
2024/03/22 00:46:29;;;;;;;4.88;4.38;;;;;;;9.80;76.65;99875.13;5092182;28;20041;-66
2024/03/22 00:48:55;;;;;;;6.15;3.03;;;;;;;9.82;77.00;99870.88;5092903;28;20032;-66
2024/03/22 00:51:23;;;;;;;2.10;1.55;;;;;;;9.79;76.39;99881.09;5075749;28;20028;-66
2024/03/22 00:53:50;;;;;;;3.95;3.10;;;;;;;9.75;76.81;99880.19;5092515;28;20059;-66
2024/03/22 00:56:19;;;;;;;4.05;3.45;;;;;;;9.71;76.92;99882.72;5075299;28;20044;-66
2024/03/22 00:58:45;;;;;;;5.35;2.25;;;;;;;9.68;76.88;99887.78;5092230;28;20086;-66
2024/03/22 01:01:14;;;;;;;2.80;2.47;;;;;;;9.66;77.33;99884.38;5075998;28;20094;-66
2024/03/22 01:03:40;;;;;;;3.15;1.73;;;;;;;9.61;77.35;99886.91;5092603;28;20040;-65
2024/03/22 01:06:08;;;;;;;6.88;2.17;;;;;;;9.63;78.02;99889.47;5092585;28;20573;-65
2024/03/22 01:08:36;;;;;;;7.13;3.55;;;;;;;9.64;77.44;99883.53;5092104;28;20413;-65
2024/03/22 01:11:05;;;;;;;3.05;1.88;;;;;;;9.64;77.45;99881.00;5093979;28;20481;-66
2024/03/22 01:13:33;;;;;;;2.15;1.98;;;;;;;9.62;77.62;99880.97;5096698;28;20513;-66
2024/03/22 01:16:00;;;;;;;2.85;2.33;;;;;;;9.62;78.18;99887.78;5079039;28;20406;-66
2024/03/22 01:18:27;;;;;;;4.20;3.60;;;;;;;9.61;78.14;99880.97;5096293;28;20032;-65
2024/03/22 01:20:55;;;;;;;3.33;2.45;;;;;;;9.58;77.79;99881.78;5096261;28;20036;-66
2024/03/22 01:23:22;;;;;;;1.67;1.58;;;;;;;9.55;78.19;99878.38;5096194;28;20037;-66
2024/03/22 01:25:50;;;;;;;4.30;2.97;;;;;;;9.55;78.01;99879.22;5095981;28;20044;-66
2024/03/22 01:28:16;;;;;;;6.85;2.05;;;;;;;9.55;78.11;99886.03;5096065;28;20506;-66
2024/03/22 01:30:47;;;;;;;3.03;2.75;;;;;;;9.54;78.54;99889.41;5096074;28;20036;-66
2024/03/22 01:33:14;;;;;;;3.28;2.88;;;;;;;9.52;78.48;99893.66;5096013;28;20036;-66
2024/03/22 01:35:42;;;;;;;2.38;2.17;;;;;;;9.40;78.84;99877.44;5079109;28;20040;-66
2024/03/22 01:38:08;;;;;;;2.42;2.00;;;;;;;9.40;79.08;99887.63;5095943;28;20494;-66
2024/03/22 01:40:36;;;;;;;2.22;1.52;;;;;;;9.39;78.92;99885.06;5095531;28;20048;-66
2024/03/22 01:43:03;;;;;;;3.35;2.38;;;;;;;9.39;78.29;99891.00;5095729;28;20047;-66
2024/03/22 01:45:34;;;;;;;2.28;2.08;;;;;;;9.32;78.19;99899.44;5095774;28;20495;-66
2024/03/22 01:48:03;;;;;;;3.45;2.60;;;;;;;9.29;78.61;99899.41;5078447;28;20051;-66
2024/03/22 01:50:31;;;;;;;2.90;2.63;;;;;;;9.25;78.27;99892.59;5078771;28;20040;-66
2024/03/22 01:52:58;;;;;;;4.07;3.33;;;;;;;9.19;78.91;99897.63;5095714;28;20032;-66
2024/03/22 01:55:28;;;;;;;2.70;2.50;;;;;;;9.18;78.68;99888.31;5078567;28;20055;-66
2024/03/22 01:57:56;;;;;;;3.85;2.80;;;;;;;9.15;78.37;99885.72;5095518;28;20055;-66
2024/03/22 02:00:24;;;;;;;3.15;2.72;;;;;;;9.12;78.03;99882.28;5095512;28;20044;-67
2024/03/22 02:02:50;;;;;;;6.20;1.75;;;;;;;9.10;78.23;99896.69;5095243;28;20036;-66
2024/03/22 02:05:21;;;;;;;8.13;3.30;;;;;;;9.07;78.65;99897.53;5078451;28;20051;-65
2024/03/22 02:07:48;;;;;;;2.20;2.00;;;;;;;9.00;78.89;99890.69;5095071;28;20051;-66
2024/03/22 02:10:16;;;;;;;2.78;2.13;;;;;;;8.97;79.05;99890.69;5095340;28;20051;-66
2024/03/22 02:12:43;;;;;;;1.88;1.70;;;;;;;8.96;78.13;99888.97;5078518;28;20037;-66
2024/03/22 02:15:11;;;;;;;3.00;2.65;;;;;;;8.96;78.56;99894.03;5095783;28;20036;-66
2024/03/22 02:17:38;;;;;;;3.10;2.50;;;;;;;8.94;78.49;99895.72;5094930;28;20090;-65
2024/03/22 02:20:07;;;;;;;3.33;2.97;;;;;;;8.90;78.97;99888.88;5078095;28;20031;-66
2024/03/22 02:22:35;;;;;;;;;;;;;;;8.88;79.48;99885.47;5094285;28;20047;-65
2024/03/22 02:25:05;;;;;;;;;;;;;;;8.87;79.20;99876.16;5095168;28;19969;-66
2024/03/22 02:27:31;;;;;;;;;;;;;;;8.87;79.03;99883.78;5094999;28;19924;-66
2024/03/22 02:29:58;;;;;;;;;;;;;;;8.89;79.63;99891.44;5095107;28;19927;-66
2024/03/22 02:32:25;;;;;;;;;;;;;;;8.91;79.41;99893.16;5095140;28;19920;-66
2024/03/22 02:34:53;;;;;;;;;;;;;;;8.94;79.51;99895.72;5095082;28;19919;-66
2024/03/22 02:37:19;;;;;;;;;;;;;;;8.90;79.56;99893.97;5095339;28;19931;-66
2024/03/22 02:39:46;;;;;;;;;;;;;;;8.83;80.38;99897.31;5095256;28;19973;-66
2024/03/22 02:42:15;;;;;;;;;;;;;;;8.84;80.33;99891.38;5095123;28;19920;-66
2024/03/22 02:44:43;;;;;;;;;;;;;;;8.87;80.16;99893.97;5094832;28;19986;-66
2024/03/22 02:47:10;;;;;;;;;;;;;;;8.83;80.40;99896.47;5094919;28;19927;-65
2024/03/22 02:49:38;;;;;;;;;;;;;;;8.82;80.62;99899.84;5094978;28;20300;-66
2024/03/22 02:52:05;;;;;;;;;;;;;;;8.81;80.89;99898.97;5094994;28;20381;-66
2024/03/22 02:54:32;;;;;;;;;;;;;;;8.83;80.50;99894.75;5094946;28;19927;-66
2024/03/22 02:56:59;;;;;;;;;;;;;;;8.82;80.61;99889.66;5094451;28;19969;-66
2024/03/22 02:59:28;;;;;;;;;;;;;;;8.83;80.99;99897.31;5094817;28;19927;-65
2024/03/22 03:01:54;;;;;;;;;;;;;;;8.84;81.26;99893.94;5094788;28;19920;-66
2024/03/22 03:04:22;;;;;;;;;;;;;;;8.87;81.02;99893.09;5078008;28;20324;-66
2024/03/22 03:06:48;;;;;;;;;;;;;;;8.90;81.65;99893.97;5094270;28;19927;-66
2024/03/22 03:09:15;;;;;;;;;;;;;;;8.90;80.77;99888.88;5094591;28;19943;-66
2024/03/22 03:11:42;;;;;;;;;;;;;;;8.91;81.74;99884.66;5094939;28;20347;-66
2024/03/22 03:14:09;;;;;;;;;;;;;;;8.91;81.70;99885.50;5094562;28;19920;-66
2024/03/22 03:16:37;;;;;;;;;;;;;;;8.97;81.35;99882.19;5094202;28;19928;-66
2024/03/22 03:19:04;;;;;;;;;;;;;;;8.96;81.59;99888.97;5094754;28;20302;-66
2024/03/22 03:21:31;;;;;;;;;;;;;;;8.95;81.09;99892.31;5077563;28;19970;-66
2024/03/22 03:23:58;;;;;;;;;;;;;;;8.93;81.63;99890.59;5094074;28;19920;-66
2024/03/22 03:26:26;;;;;;;;;;;;;;;8.96;81.53;99898.28;5094152;28;20401;-67
2024/03/22 03:28:55;;;;;;;;;;;;;;;8.95;81.81;99897.41;5094274;28;20036;-65
2024/03/22 03:31:21;;;;;;;;;;;;;;;8.97;81.46;99895.78;5094161;28;19920;-65
2024/03/22 03:33:50;;;;;;;;;;;;;;;8.96;81.67;99883.88;5093804;28;19920;-66
2024/03/22 03:36:17;;;;;;;;;;;;;;;9.00;81.73;99894.94;5094070;28;19942;-66
2024/03/22 03:38:44;;;;;;;;;;;;;;;9.02;81.50;99881.34;5093983;28;19920;-66
2024/03/22 03:41:10;;;;;;;;;;;;;;;9.00;81.51;99880.50;5093951;28;19920;-66
2024/03/22 03:43:38;;;;;;;;;;;;;;;9.04;81.45;99874.63;5093763;28;19920;-65
2024/03/22 03:46:04;;;;;;;;;;;;;;;9.02;81.59;99878.81;5076722;28;19927;-67
2024/03/22 03:48:32;;;;;;;;;;;;;;;9.02;81.24;99883.91;5093688;28;19920;-67
2024/03/22 03:51:02;;;;;;;;;;;;;;;9.00;81.45;99880.50;5094066;28;20370;-66
2024/03/22 03:53:30;;;;;;;;;;;;;;;8.98;81.38;99882.19;5093911;28;19927;-66
2024/03/22 03:55:57;;;;;;;;;;;;;;;8.99;81.74;99878.81;5093581;28;19920;-66
2024/03/22 03:58:24;;;;;;;;;;;;;;;8.99;81.64;99875.41;5094019;28;19920;-66
2024/03/22 04:00:51;;;;;;;;;;;;;;;8.95;81.52;99881.31;5093630;28;19969;-67
2024/03/22 04:03:19;;;;;;;;;;;;;;;8.97;81.60;99892.38;5093245;28;19959;-67
2024/03/22 04:05:45;;;;;;;;;;;;;;;8.96;81.61;99888.97;5093387;28;20099;-66
2024/03/22 04:08:14;;;;;;;;;;;;;;;8.95;81.48;99897.41;5076480;28;19920;-66
2024/03/22 04:10:41;;;;;;;;;;;;;;;8.91;81.87;99887.19;5093324;28;19919;-66
2024/03/22 04:13:08;;;;;;;;;;;;;;;8.86;81.19;99882.06;5076131;28;19920;-66
2024/03/22 04:15:35;;;;;;;;;;;;;;;8.84;81.93;99893.94;5093489;28;19927;-67
2024/03/22 04:18:02;;;;;;;;;;;;;;;8.86;81.85;99887.16;5093568;28;19920;-66
2024/03/22 04:20:28;;;;;;;;;;;;;;;8.88;82.33;99885.47;5093077;28;19920;-67
2024/03/22 04:22:56;;;;;;;;;;;;;;;8.90;82.30;99883.78;5093397;28;19966;-66
2024/03/22 04:25:24;;;;;;;;;;;;;;;8.92;81.88;99877.06;5093452;28;19920;-66
2024/03/22 04:27:51;;;;;;;;;;;;;;;8.93;82.13;99882.97;5093009;28;19955;-66
2024/03/22 04:30:17;;;;;;;;;;;;;;;8.96;82.08;99888.97;5076449;28;19981;-66
2024/03/22 04:32:47;;;;;;;;;;;;;;;8.90;82.15;99883.78;5093201;28;19920;-66
2024/03/22 04:35:13;;;;;;;;;;;;;;;8.86;81.69;99876.13;5093228;28;19920;-66
2024/03/22 04:37:41;;;;;;;;;;;;;;;8.84;81.92;99877.81;5093265;28;20284;-66
2024/03/22 04:40:10;;;;;;;;;;;;;;;8.78;82.16;99876.06;5093508;28;19920;-66
2024/03/22 04:42:38;;;;;;;;;;;;;;;8.74;82.13;99885.34;5059552;28;19947;-66
2024/03/22 04:45:06;;;;;;;;;;;;;;;8.74;82.17;99876.84;5093320;28;19973;-66
2024/03/22 04:47:32;;;;;;;;;;;;;;;8.68;82.32;99884.44;5097133;28;20274;-67
2024/03/22 04:50:00;;;;;;;;;;;;;;;8.70;82.46;99892.94;5097209;28;19920;-66
2024/03/22 04:52:26;;;;;;;;;;;;;;;8.70;81.51;99892.94;5097335;28;19924;-67
2024/03/22 04:54:53;;;;;;;;;;;;;;;8.65;82.42;99897.13;5096565;28;19920;-67
2024/03/22 04:57:20;;;;;;;;;;;;;;;8.65;82.52;99904.75;5080533;28;19927;-66
2024/03/22 04:59:48;;;;;;;;;;;;;;;8.63;82.15;99898.81;5079897;28;20369;-66
2024/03/22 05:02:15;;;;;;;;;;;;;;;8.60;82.57;99898.78;5079672;28;19966;-65
2024/03/22 05:04:42;;;;;;;;;;;;;;;8.55;82.11;99900.41;5096626;28;20369;-66
2024/03/22 05:07:08;;;;;;;;;;;;;;;8.46;82.16;99895.22;5096605;28;20365;-66
2024/03/22 05:09:36;;;;;;;;;;;;;;;8.44;83.39;99891.81;5097154;28;19927;-66
2024/03/22 05:12:02;;;;;;;;;;;;;;;8.49;82.18;99902.91;5080285;28;19920;-66
2024/03/22 05:14:30;;;;;;;;;;;;;;;8.53;83.33;99897.00;5096903;28;19927;-66
2024/03/22 05:16:58;;;;;;;;;;;;;;;8.56;82.84;99894.50;5096992;28;19927;-66
2024/03/22 05:19:25;;;;;;;;;;;;;;;8.59;83.10;99894.53;5096516;28;19990;-66
2024/03/22 05:21:52;;;;;;;;;;;;;;;8.62;83.31;99897.94;5096768;28;19927;-66
2024/03/22 05:24:20;;;;;;;;;;;;;;;8.68;82.71;99898.03;5096559;28;19924;-67
2024/03/22 05:26:46;;;;;;;;;;;;;;;8.73;82.77;99905.72;5096357;28;19924;-66
2024/03/22 05:29:14;;;;;;;;;;;;;;;8.71;82.76;99907.34;5096790;28;20251;-66
2024/03/22 05:31:46;;;;;;;;;;;;;;;8.67;82.43;99901.41;5080156;28;20259;-66
2024/03/22 05:34:16;;;;;;;;;;;;;;;8.71;82.92;99897.19;5096706;28;19919;-67
2024/03/22 05:36:42;;;;;;;;;;;;;;;8.67;82.90;99892.91;5096455;28;20374;-67
2024/03/22 05:39:10;;;;;;;;;;;;;;;8.68;82.59;99890.41;5096400;28;19920;-66
2024/03/22 05:41:37;;;;;;;;;;;;;;;8.69;82.58;99896.31;5096392;28;20351;-66
2024/03/22 05:44:04;;;;;;;;;;;;;;;8.70;82.52;99890.41;5079497;28;20381;-66
2024/03/22 05:46:31;;;;;;;;;;;;;;;8.70;83.12;99895.50;5096247;28;19946;-66
2024/03/22 05:48:58;;;;;;;;;;;;;;;8.75;82.92;99898.94;5096008;28;19946;-66
2024/03/22 05:51:26;;;;;;;;;;;;;;;8.74;83.35;99892.13;5095817;28;19920;-66
2024/03/22 05:53:54;;;;;;;;;;;;;;;8.77;82.91;99892.16;5096127;28;19920;-66
2024/03/22 05:56:20;;;;;;;;;;;;;;;8.80;83.18;99892.22;5095326;28;19970;-66
2024/03/22 05:58:47;;;;;;;;;;;;;;;8.86;82.98;99891.38;5079207;28;19924;-67
2024/03/22 06:01:14;;;;;;;;;;;;;;;8.94;83.51;99894.88;5095978;28;20366;-66
2024/03/22 06:03:41;;;;;;;;;;;;;;;9.01;83.24;99897.50;5078944;28;19966;-66
2024/03/22 06:06:07;;;;;;;;;;;;;;;9.08;83.30;99894.16;5095790;28;19924;-66
2024/03/22 06:08:39;;;;;;;;;;;;;;;9.18;83.40;99884.91;5095470;28;20325;-67
2024/03/22 06:11:07;;;;;;;;;;;;;;;9.29;82.95;99889.22;5095575;28;19974;-66
2024/03/22 06:13:34;;;;;;;;;;;;;;;9.41;82.48;99889.31;5095768;28;19981;-66
2024/03/22 06:16:01;;;;;;;;;;;;;;;9.49;82.38;99894.47;5095655;28;19981;-66
2024/03/22 06:18:28;;;;;;;;;;;;;;;9.57;82.60;99899.63;5095556;28;19924;-66
2024/03/22 06:20:54;;;;;;;;;;;;;;;9.65;82.51;99903.06;5095284;28;19924;-66
2024/03/22 06:23:23;;;;;;;;;;;;;;;9.73;82.04;99903.97;5078776;28;19927;-67
2024/03/22 06:25:54;;;;;;;;;;;;;;;9.80;82.46;99898.06;5095550;28;19919;-66
2024/03/22 06:28:22;;;;;;;;;;;;;;;9.85;82.11;99896.41;5095051;28;19945;-66
2024/03/22 06:30:48;;;;;;;;;;;;;;;9.86;81.68;99898.94;5078529;28;19945;-66
2024/03/22 06:33:16;;;;;;;;;;;;;;;9.94;81.79;99893.88;5095266;28;19943;-66
2024/03/22 06:35:42;;;;;;;;;;;;;;;10.02;82.11;99894.78;5078431;28;19934;-67
2024/03/22 06:38:10;;;;;;;;;;;;;;;10.10;82.17;99896.53;5078286;28;19943;-67
2024/03/22 06:40:36;;;;;;;;;;;;;;;10.15;81.96;99896.56;5078416;28;19920;-66
2024/03/22 06:43:05;;;;;;;;;;;;;;;10.21;82.16;99904.25;5095482;28;19920;-67
2024/03/22 06:45:31;;;;;;;;;;;;;;;10.29;81.99;99894.97;5095138;28;19926;-66
2024/03/22 06:47:58;;;;;;;;;;;;;;;10.36;82.01;99906.88;5094836;28;19920;-66
2024/03/22 06:50:25;;;;;;;;;;;;;;;10.42;82.10;99906.88;5094981;28;19920;-66
2024/03/22 06:52:55;;;;;;;;;;;;;;;10.50;81.50;99910.34;5077245;28;20294;-67
2024/03/22 06:55:22;;;;;;;;;;;;;;;10.57;81.38;99906.94;5094562;28;19920;-67
2024/03/22 06:57:50;;;;;;;;;;;;;;;10.62;81.59;99915.47;5094790;28;20388;-67
2024/03/22 07:00:18;;;;;;;;;;;;;;;10.65;81.65;99910.34;5094012;28;19920;-66
2024/03/22 07:02:45;;;;;;;;;;;;;;;10.68;81.93;99919.72;5094693;28;19977;-66
2024/03/22 07:05:11;;;;;;;;;;;;;;;10.71;81.80;99915.50;5077680;28;19920;-66
2024/03/22 07:07:39;;;;;;;;;;;;;;;10.73;81.78;99924.00;5077284;28;20354;-66
2024/03/22 07:10:05;;;;;;;;;;;;;;;10.75;81.80;99932.50;5077298;28;19920;-66
2024/03/22 07:12:33;;;;;;;;;;;;;;;10.82;81.68;99927.44;5094488;28;20022;-67
2024/03/22 07:15:00;;;;;;;;;;;;;;;10.87;82.08;99926.56;5094836;28;19920;-67
2024/03/22 07:17:29;;;;;;;;;;;;;;;10.91;82.40;99927.44;5111034;28;20467;-66
2024/03/22 07:19:55;;;;;;;;;;;;;;;11.00;82.22;99919.78;5077330;28;20526;-66
2024/03/22 07:22:23;;;;;;;;;;;;;;;11.10;82.30;99916.41;5094359;28;20018;-67
2024/03/22 07:24:51;;;;;;;;;;;;;;;11.21;82.34;99917.25;5060691;28;19920;-67
2024/03/22 07:27:18;;;;;;;;;;;;;;;11.33;82.15;99907.03;5094057;28;19963;-67
2024/03/22 07:29:45;;;;;;;;;;;;;;;11.45;82.06;99912.13;5094189;28;19920;-67
2024/03/22 07:32:12;;;;;;;;;;;;;;;11.60;81.67;99912.13;5094237;28;19920;-67
2024/03/22 07:34:40;;;;;;;;;;;;;;;11.76;81.49;99912.97;5094083;28;19920;-67
2024/03/22 07:37:08;;;;;;;;;;;;;;;11.91;81.12;99912.97;5077067;28;19924;-66
2024/03/22 07:39:34;;;;;;;;;;;;;;;12.04;80.59;99919.75;5094092;28;19920;-66
2024/03/22 07:42:03;;;;;;;;;;;;;;;12.13;79.62;99919.72;5076914;28;20351;-66
2024/03/22 07:44:29;;;;;;;;;;;;;;;12.24;78.98;99922.25;5093971;28;20376;-66
2024/03/22 07:46:56;;;;;;;;;;;;;;;12.31;78.54;99917.09;5093781;28;19928;-67
2024/03/22 07:49:22;;;;;;;;;;;;;;;12.40;77.93;99913.66;5076594;28;19926;-66
2024/03/22 07:51:53;;;;;;;;;;;;;;;12.48;77.34;99917.00;5076951;28;19986;-67
2024/03/22 07:54:19;;;;;;;;;;;;;;;12.54;76.58;99928.09;5076510;28;19923;-67
2024/03/22 07:56:47;;;;;;;;;;;;;;;12.62;76.38;99920.38;5076297;28;19927;-67
2024/03/22 07:59:16;;;;;;;;;;;;;;;12.72;75.63;99922.00;5093679;28;19920;-66
2024/03/22 08:01:42;;;;;;;;;;;;;;;12.70;74.73;99919.47;5093729;28;19927;-66
2024/03/22 08:04:10;;;;;;;;;;;;;;;12.76;74.60;99916.03;5093318;28;19942;-67
2024/03/22 08:06:37;;;;;;;;;;;;;;;12.87;74.38;99905.69;5093590;28;19920;-66
2024/03/22 08:09:06;;;;;;;;;;;;;;;12.97;74.04;99908.22;5093185;28;19973;-67
2024/03/22 08:11:34;;;;;;;;;;;;;;;13.03;73.54;99903.03;5093865;28;19920;-67
2024/03/22 08:14:03;;;;;;;;;;;;;;;13.08;72.58;99906.44;5076652;28;19920;-67
2024/03/22 08:16:30;;;;;;;;;;;;;;;13.14;72.01;99905.56;5076681;28;20023;-67
2024/03/22 08:18:57;;;;;;;;;;;;;;;13.24;71.90;99904.63;5093358;28;19919;-67
2024/03/22 08:21:24;;;;;;;;;;;;;;;13.33;71.88;99897.72;5093352;28;19927;-67
2024/03/22 08:23:52;;;;;;;;;;;;;;;13.41;71.48;99895.91;5093357;28;19927;-67
2024/03/22 08:26:19;;;;;;;;;;;;;;;13.40;70.96;99889.09;5093187;28;19919;-68
2024/03/22 08:28:47;;;;;;;;;;;;;;;13.38;70.87;99889.97;5076164;28;19973;-68
2024/03/22 08:31:14;;;;;;;;;;;;;;;13.44;70.56;99889.91;5092864;28;19927;-67
2024/03/22 08:33:41;;;;;;;;;;;;;;;13.47;69.48;99884.75;5093164;28;19927;-67
2024/03/22 08:36:08;;;;;;;;;;;;;;;13.58;69.57;99887.25;5076146;28;20285;-67
2024/03/22 08:38:35;;;;;;;;;;;;;;;13.68;69.43;99897.38;5076163;28;19923;-67
2024/03/22 08:41:01;;;;;;;;;;;;;;;13.74;69.30;99886.22;5092767;28;19920;-67
2024/03/22 08:43:30;;;;;;;;;;;;;;;13.82;69.07;99892.13;5092959;28;20377;-67
2024/03/22 08:45:57;;;;;;;;;;;;;;;13.95;68.35;99883.41;5093119;28;19926;-67
2024/03/22 08:48:25;;;;;;;;;;;;;;;14.04;67.58;99885.88;5076185;28;19920;-68
2024/03/22 08:50:51;;;;;;;;;;;;;;;14.15;66.67;99886.63;5092752;28;19947;-67
2024/03/22 08:53:19;;;;;;;;;;;;;;;14.22;66.12;99883.09;5076182;28;20313;-67
2024/03/22 08:55:46;;;;;;;;;;;;;;;14.27;65.84;99889.03;5092707;28;20363;-68
2024/03/22 08:58:14;;;;;;;;;;;;;;;14.28;65.99;99875.31;5092393;28;19949;-67
2024/03/22 09:00:42;;;;;;;;;;;;;;;14.31;65.70;99875.31;5092760;28;19920;-67
2024/03/22 09:03:10;;;;;;;;;;;;;;;14.41;65.47;99874.34;5076164;28;19950;-67
2024/03/22 09:05:36;;;;;;;;;;;;;;;14.48;65.28;99869.97;5092979;28;19927;-67
2024/03/22 09:08:04;;;;;;;;;;;;;;;14.58;64.87;99867.25;5092395;28;19946;-67
2024/03/22 09:10:31;;;;;;;;;;;;;;;14.57;63.79;99860.41;5092828;28;19922;-67
2024/03/22 09:12:58;;;;;;;;;;;;;;;14.60;63.10;99860.38;5092859;28;19924;-67
2024/03/22 09:15:25;;;;;;;;;;;;;;;14.66;62.80;99855.13;5093062;28;20312;-67
2024/03/22 09:17:54;;;;;;;;;;;;;;;14.66;62.45;99855.13;5075772;28;19927;-67
2024/03/22 09:20:20;;;;;;;;;;;;;;;14.65;62.47;99843.19;5092854;28;20358;-67
2024/03/22 09:22:47;;;;;;;;;;;;;;;14.76;62.43;99851.56;5092697;28;19919;-67
2024/03/22 09:25:14;;;;;;;;;;;;;;;14.89;62.71;99851.38;5092780;28;19927;-67
2024/03/22 09:27:42;;;;;;;;;;;;;;;14.96;62.46;99838.41;5075575;28;19959;-67
2024/03/22 09:30:09;;;;;;;;;;;;;;;14.91;62.20;99839.34;5076011;28;20403;-67
2024/03/22 09:32:37;;;;;;;;;;;;;;;14.88;61.94;99835.09;5078394;28;19928;-67
2024/03/22 09:35:05;;;;;;;;;;;;;;;14.86;62.25;99841.13;5096536;28;19978;-67
2024/03/22 09:37:32;;;;;;;;;;;;;;;14.81;61.88;99848.91;5096019;28;19969;-67
2024/03/22 09:39:59;;;;;;;;;;;;;;;14.80;61.89;99843.81;5079359;28;19927;-67
2024/03/22 09:42:27;;;;;;;;;;;;;;;14.82;62.44;99845.50;5096113;28;19927;-67
2024/03/22 09:44:53;;;;;;;;;;;;;;;14.82;61.81;99842.06;5096454;28;19970;-67
2024/03/22 09:47:21;;;;;;;;;;;;;;;14.85;62.32;99850.59;5095852;28;20294;-67
2024/03/22 09:49:49;;;;;;;;;;;;;;;14.85;61.99;99849.72;5095838;28;19939;-67
2024/03/22 09:52:21;;;;;;;;;;;;;;;14.97;61.84;99849.53;5096151;28;19924;-67
2024/03/22 09:54:47;;;;;;;;;;;;;;;15.11;61.60;99847.59;5095879;28;19928;-68
2024/03/22 09:57:19;;;;;;;;;;;;;;;15.20;60.87;99847.44;5079493;28;19974;-67
2024/03/22 09:59:45;;;;;;;;;;;;;;;15.35;59.74;99844.63;5096015;28;19920;-67
2024/03/22 10:02:14;;;;;;;;;;;;;;;15.47;58.40;99847.00;5095945;28;19920;-68
2024/03/22 10:04:41;;;;;;;;;;;;;;;15.64;57.72;99839.84;5095923;28;19920;-67
2024/03/22 10:07:10;;;;;;;;;;;;;;;15.84;58.00;99842.84;5095756;28;19924;-67
2024/03/22 10:09:38;;;;;;;;;;;;;;;15.94;58.36;99844.38;5078694;28;20266;-67
2024/03/22 10:12:05;;;;;;;;;;;;;;;15.93;58.58;99836.69;5078913;28;19927;-67
2024/03/22 10:14:33;;;;;;;;;;;;;;;15.80;58.60;99840.38;5096091;28;19927;-68
2024/03/22 10:17:01;;;;;;;;;;;;;;;15.70;58.10;99838.84;5078794;28;20442;-67
2024/03/22 10:19:27;;;;;;;;;;;;;;;15.60;57.72;99833.03;5095345;28;20417;-67
2024/03/22 10:22:01;;;;;;;;;;;;;;;15.55;57.36;99834.84;5095887;28;19920;-67
2024/03/22 10:24:28;;;;;;;;;;;;;;;15.47;57.10;99831.56;5095481;28;20009;-67
2024/03/22 10:26:57;;;;;;;;;;;;;;;15.47;56.74;99830.72;5095474;28;19927;-67
2024/03/22 10:29:24;;;;;;;;;;;;;;;15.50;56.89;99828.09;5094942;28;19927;-67
2024/03/22 10:31:52;;;;;;;;;;;;;;;15.50;56.40;99831.50;5095442;28;19927;-67
2024/03/22 10:34:20;;;;;;;;;;;;;;;15.57;56.59;99832.25;5095269;28;19959;-67
2024/03/22 10:36:50;;;;;;;;;;;;;;;15.64;56.96;99834.69;5095019;28;20293;-67
2024/03/22 10:39:17;;;;;;;;;;;;;;;15.70;57.41;99834.56;5078180;28;20291;-67
2024/03/22 10:41:44;;;;;;;;;;;;;;;15.76;57.49;99834.47;5094921;28;19966;-67
2024/03/22 10:44:12;;;;;;;;;;;;;;;15.82;57.81;99831.75;5094128;28;20362;-67
2024/03/22 10:46:44;;;;;;;;;;;;;;;15.78;57.19;99826.69;5095079;28;19920;-67
2024/03/22 10:49:15;;;;;;;;;;;;;;;15.68;56.97;99828.59;5094739;28;20364;-67
2024/03/22 10:51:46;;;;;;;;;;;;;;;15.66;57.19;99830.34;5094814;28;19959;-67
2024/03/22 10:54:15;;;;;;;;;;;;;;;15.66;56.74;99822.63;5094902;28;19927;-67
2024/03/22 10:56:43;;;;;;;;;;;;;;;15.68;56.96;99825.16;5094814;28;19920;-67
2024/03/22 10:59:12;;;;;;;;;;;;;;;15.72;56.83;99817.34;5094834;28;19920;-67
2024/03/22 11:01:46;;;;;;;;;;;;;;;15.78;56.61;99821.53;5094848;28;19920;-67
2024/03/22 11:04:15;;;;;;;;;;;;;;;15.73;56.37;99818.22;5094741;28;19927;-67
2024/03/22 11:06:48;;;;;;;;;;;;;;;15.74;56.16;99820.75;5094321;28;19924;-67
2024/03/22 11:09:21;;;;;;;;;;;;;;;15.79;56.13;99813.78;5094582;28;19926;-67
2024/03/22 11:11:48;;;;;;;;;;;;;;;15.80;56.05;99815.50;5094540;28;20259;-67
2024/03/22 11:14:15;;;;;;;;;;;;;;;15.72;55.91;99807.06;5094552;28;19924;-67
2024/03/22 11:16:45;;;;;;;;;;;;;;;15.71;56.29;99810.53;5077699;28;19923;-67
2024/03/22 11:19:12;;;;;;;;;;;;;;;15.74;56.39;99805.31;5094517;28;19927;-67
2024/03/22 11:21:39;;;;;;;;;;;;;;;15.72;55.77;99796.78;5094024;28;19931;-67
2024/03/22 11:24:06;;;;;;;;;;;;;;;15.59;55.69;99790.19;5094301;28;19975;-66
2024/03/22 11:26:33;;;;;;;;;;;;;;;15.59;55.69;99794.47;5093968;28;19923;-68
2024/03/22 11:28:59;;;;;;;;;;;;;;;15.64;55.75;99788.38;5094088;28;19938;-67
2024/03/22 11:31:28;;;;;;;;;;;;;;;15.67;56.41;99785.72;5094209;28;19920;-67
2024/03/22 11:33:56;;;;;;;;;;;;;;;15.67;56.03;99779.75;5094181;28;19920;-67
2024/03/22 11:36:24;;;;;;;;;;;;;;;15.76;56.13;99782.97;5094142;28;19920;-67
2024/03/22 11:38:52;;;;;;;;;;;;;;;15.86;56.44;99779.31;5093905;28;19920;-69
2024/03/22 11:41:22;;;;;;;;;;;;;;;15.88;55.79;99767.25;5077196;28;19924;-67
2024/03/22 11:43:48;;;;;;;;;;;;;;;15.94;55.88;99771.44;5060443;28;20046;-67
2024/03/22 11:46:16;;;;;;;;;;;;;;;16.01;56.03;99765.28;5093667;28;20298;-68
2024/03/22 11:48:42;;;;;;;;;;;;;;;16.06;55.15;99772.03;5076734;28;19924;-66
2024/03/22 11:51:11;;;;;;;;;;;;;;;15.97;55.72;99766.25;5093501;28;19931;-67
2024/03/22 11:53:38;;;;;;;;;;;;;;;16.00;55.03;99764.44;5093864;28;19963;-67
2024/03/22 11:56:06;;;;;;;;;;;;;;;15.93;55.12;99765.44;5093119;28;19920;-67
2024/03/22 11:58:33;;;;;;;;;;;;;;;15.99;55.31;99764.47;5093809;28;19920;-66
2024/03/22 12:01:00;;;;;;;;;;;;;;;15.98;55.30;99758.47;5093722;28;20392;-67
2024/03/22 12:03:28;;;;;;;;;;;;;;;15.98;55.33;99762.78;5093776;28;19927;-67
2024/03/22 12:05:56;;;;;;;;;;;;;;;15.92;55.24;99750.03;5093603;28;19947;-67
2024/03/22 12:08:24;;;;;;;;;;;;;;;15.94;55.23;99746.56;5093261;28;19962;-67
2024/03/22 12:10:51;;;;;;;;;;;;;;;15.96;55.32;99746.50;5093565;28;19942;-67
2024/03/22 12:13:17;;;;;;;;;;;;;;;16.02;55.88;99748.97;5093767;28;20278;-67
2024/03/22 12:15:45;;;;;;;;;;;;;;;16.04;55.78;99740.34;5093487;28;20393;-67
2024/03/22 12:18:12;;;;;;;;;;;;;;;15.96;55.32;99734.50;5093526;28;19943;-67
2024/03/22 12:20:40;;;;;;;;;;;;;;;15.81;54.87;99732.22;5093677;28;19923;-67
2024/03/22 12:23:06;;;;;;;;;;;;;;;15.75;55.12;99734.94;5093204;28;20355;-68
2024/03/22 12:25:35;;;;;;;;;;;;;;;15.72;55.05;99727.28;5093187;28;19927;-66
2024/03/22 12:28:01;;;;;;;;;;;;;;;15.75;55.49;99724.66;5093116;28;19920;-66
2024/03/22 12:30:29;;;;;;;;;;;;;;;15.75;55.97;99723.81;5092981;28;19943;-66
2024/03/22 12:32:55;;;;;;;;;;;;;;;15.82;56.08;99726.22;5093342;28;19924;-66
2024/03/22 12:35:23;;;;;;;;;;;;;;;15.82;55.59;99715.94;5093212;28;19920;-66
2024/03/22 12:37:49;;;;;;;;;;;;;;;15.76;55.97;99704.91;5093239;28;20018;-66
2024/03/22 12:40:16;;;;;;;;;;;;;;;15.81;56.05;99703.91;5076051;28;19920;-66